Aeroporto :
LOGIN :

Iscrizione | Disclaimer

   EN    FR    IT 

 










Sommario :    VFR   VFR Marginale   IFR   IFR Intensivo   IFR Molto Intensivo
Visibilità : 
Base nubi : 
>= 8 km
>= 3000ft
5 / 8 km
1000 / 3000 ft
1500m / 5 km
500 / 1000 ft
800 / 1500m
200 / 500 ft
< 800m
< 200 ft
Simboli :   Temporali  Nebbia  Neve Forte  Precipitazioni Forti  Vento > 20 kt
SIGMETs :   Varie  Temporali  Ghiacco  Turbolenza  Onda orograficha  Ceneri Vulcaniche






- Altitudine del aeroporto : 84 ft


LFBC - Cazaux

ULTIMO METAR :
  • 121400Z AUTO 29010KT 260V330 9999 FEW028 14/08 Q1010

METARs OBSOLETI :
  • 121330Z AUTO 30010KT 260V330 9999 ///TCU 15/09 Q1010 TEMPO 31015G25KT SHRA
  • 121300Z AUTO 29010KT 260V320 9999 FEW027/// SCT068/// ///TCU 14/09 Q1010 TEMPO 31015G25KT SHRA
  • 121230Z AUTO 27005KT 230V310 9999 FEW029/// BKN062/// ///CB 12/10 Q1011 TEMPO 31015G25KT SHRA
  • 121200Z AUTO 27012KT 240V300 9999 -RA FEW020/// BKN028/// BKN037/// ///CB 13/09 Q1011 TEMPO 31015G25KT SHRA
  • 121130Z AUTO 28009KT 240V310 9999 FEW029/// SCT043/// BKN052/// ///CB 15/11 Q1011 TEMPO 31015G25KT SHRA

TAF TAF LFBC
Valido dal 12 a 09 ore il 13 a 09 ore UTC


120800Z 1209/1309 28005KT 9999 SCT030 SCT050
TEMPO 1209/1223 31015G25KT SHRA BKN025TCU
PROB40
TEMPO 1304/1309 0800 BCFG VV///



MetMap, La meteo Aeronautica in un colpo d'occhio ! - Copyright ORBIFLY Dicembre 2007 - Disclaimer

ORBIFLY MET'MAP TEAM :

Programmazione e sviluppo : Alexandra Zaïnal
Concezione e sviluppo : Baudouin d'Aumeries
Co-Programmazione e sviluppo : Marc-Olivier Méhu
Supporto tecnico e logistico : Manuel Goepfert
Aiuto per la traduzione : Arnaldo La Scala

Contatto : metmap@orbifly.com




FONTI E CREDITI :

   NOAA